Time;durP1;ratioP1;P1;durP2;ratioP2;P2;SDS_P1;SDS_P2;PMS_P1;PMS_P2;Temp;Humidity;BMP_temperature;BMP_pressure;BME280_temperature;BME280_humidity;BME280_pressure;Samples;Min_cycle;Max_cycle;Signal;HPM_P1;HPM_P2
2022/11/23 00:01:36;;;;;;;;;;;;;;;24.44;45.53;92997.06;4988389;28;7244;-61
2022/11/23 00:04:06;;;;;;;;;;;;;;;24.46;45.75;92993.75;4989321;28;7127;-61
2022/11/23 00:06:42;;;;;;;;;;;;;;;24.45;44.87;92990.28;4983052;28;7024;-61
2022/11/23 00:09:17;;;;;;;;;;;;;;;24.46;45.33;92996.50;4991693;28;7292;-61
2022/11/23 00:11:52;;;;;;;;;;;;;;;24.45;44.90;92982.03;4974686;28;7286;-61
2022/11/23 00:14:33;;;;;;;;;;;;;;;24.44;45.48;92980.56;4975889;28;7085;-61
2022/11/23 00:17:00;;;;;;;;;;;;;;;24.44;45.48;92979.81;4985265;28;7272;-61
2022/11/23 00:19:52;;;;;;;;;;;;;;;24.44;45.02;92983.31;5002160;28;9120;-61
2022/11/23 00:22:27;;;;;;;;;;;;;;;24.42;45.17;92980.38;4969813;28;7089;-61
2022/11/23 00:24:53;;;;;;;;;;;;;;;24.43;45.52;92992.06;4969489;28;7051;-61
2022/11/23 00:27:21;;;;;;;;;;;;;;;24.43;45.08;92986.59;4968345;28;9259;-61
2022/11/23 00:30:17;;;;;;;;;;;;;;;24.43;44.98;92989.31;4953644;28;7056;-61
2022/11/23 00:32:46;;;;;;;;;;;;;;;24.42;45.70;92988.63;4969591;28;7334;-61
2022/11/23 00:35:12;;;;;;;;;;;;;;;24.43;45.73;92979.09;4980796;28;7299;-61
2022/11/23 00:37:48;;;;;;;;;;;;;;;24.42;45.64;92977.63;4986908;28;7148;-61
2022/11/23 00:40:18;;;;;;;;;;;;;;;24.41;45.08;92986.38;4970215;28;7477;-61
2022/11/23 00:42:43;;;;;;;;;;;;;;;24.41;45.39;92975.38;4985098;28;8538;-61
2022/11/23 00:45:18;;;;;;;;;;;;;;;24.42;45.65;92987.88;4982326;28;9295;-61
2022/11/23 00:47:53;;;;;;;;;;;;;;;24.41;45.44;92987.13;4989551;28;9000;-61
2022/11/23 00:50:21;;;;;;;;;;;;;;;24.43;45.36;92989.31;4984576;28;7200;-61
2022/11/23 00:52:56;;;;;;;;;;;;;;;24.44;44.83;92986.06;4976101;28;7294;-61
2022/11/23 00:55:24;;;;;;;;;;;;;;;24.45;45.67;92981.28;4972940;28;7548;-61
2022/11/23 00:57:52;;;;;;;;;;;;;;;24.44;44.78;92980.56;4973502;28;7032;-61
2022/11/23 01:00:18;;;;;;;;;;;;;;;24.45;45.15;92976.53;4983689;28;7893;-61
2022/11/23 01:02:47;;;;;;;;;;;;;;;24.46;45.51;92985.53;4978490;28;7116;-61
2022/11/23 01:05:16;;;;;;;;;;;;;;;24.45;45.22;92984.78;4988457;28;9116;-61
2022/11/23 01:07:44;;;;;;;;;;;;;;;24.45;45.35;92984.78;5001874;28;7068;-62
2022/11/23 01:10:10;;;;;;;;;;;;;;;24.45;45.60;92995.78;4976899;28;7048;-61
2022/11/23 01:12:38;;;;;;;;;;;;;;;24.44;45.20;92991.56;5004029;28;7100;-61
2022/11/23 01:15:09;;;;;;;;;;;;;;;24.45;45.62;92981.28;4992219;28;7118;-61
2022/11/23 01:17:35;;;;;;;;;;;;;;;24.43;45.20;92984.56;4984661;28;7209;-62
2022/11/23 01:20:03;;;;;;;;;;;;;;;24.43;45.49;92990.06;4991291;28;7022;-61
2022/11/23 01:22:29;;;;;;;;;;;;;;;24.42;45.21;92977.63;4984736;28;7417;-62
2022/11/23 01:24:56;;;;;;;;;;;;;;;24.42;45.56;92977.63;4991330;28;7187;-62
2022/11/23 01:27:28;;;;;;;;;;;;;;;24.41;45.40;92987.13;4992403;28;7424;-62
2022/11/23 01:30:02;;;;;;;;;;;;;;;24.41;45.42;92987.13;4973976;28;9022;-61
2022/11/23 01:32:28;;;;;;;;;;;;;;;24.40;45.16;92977.41;4987136;28;9603;-62
2022/11/23 01:34:56;;;;;;;;;;;;;;;24.37;45.28;92981.22;4980239;28;7265;-62
2022/11/23 01:37:25;;;;;;;;;;;;;;;24.39;45.47;92981.44;4972385;28;7513;-62
2022/11/23 01:39:54;;;;;;;;;;;;;;;24.40;45.18;92982.88;4985371;28;7224;-61
2022/11/23 01:42:19;;;;;;;;;;;;;;;24.39;45.41;92986.94;4987013;28;7107;-62
2022/11/23 01:44:50;;;;;;;;;;;;;;;24.42;45.33;92979.63;4983740;28;7251;-61
2022/11/23 01:47:22;;;;;;;;;;;;;;;24.41;45.11;92984.38;4993404;28;7021;-62
2022/11/23 01:49:52;;;;;;;;;;;;;;;24.40;45.57;92982.19;4988783;28;9276;-62
2022/11/23 01:52:26;;;;;;;;;;;;;;;24.40;45.06;92977.41;4979226;28;6976;-62
2022/11/23 01:55:04;;;;;;;;;;;;;;;24.41;44.97;92980.88;4981447;28;7046;-62
2022/11/23 01:57:43;;;;;;;;;;;;;;;24.39;45.74;92980.69;4979286;28;6990;-61
2022/11/23 02:00:12;;;;;;;;;;;;;;;24.38;45.71;92968.94;5006237;28;7084;-61
2022/11/23 02:02:47;;;;;;;;;;;;;;;24.42;45.44;92972.13;4976514;28;9796;-61
2022/11/23 02:05:18;;;;;;;;;;;;;;;24.42;45.55;92977.63;5003571;28;8298;-62
2022/11/23 02:07:49;;;;;;;;;;;;;;;24.40;45.24;92980.13;4979565;28;7068;-62
2022/11/23 02:10:29;;;;;;;;;;;;;;;24.41;45.01;92972.63;4989388;28;7058;-61
2022/11/23 02:13:14;;;;;;;;;;;;;;;24.40;45.49;92969.16;5007689;28;7057;-61
2022/11/23 02:15:40;;;;;;;;;;;;;;;24.40;45.35;92974.66;4982180;28;7324;-62
2022/11/23 02:18:23;;;;;;;;;;;;;;;24.40;45.00;92979.44;4983053;28;7344;-61
2022/11/23 02:20:50;;;;;;;;;;;;;;;24.39;45.12;92975.19;4987608;28;7852;-61
2022/11/23 02:23:37;;;;;;;;;;;;;;;24.38;45.51;92977.19;4983383;28;7605;-61
2022/11/23 02:26:58;;;;;;;;;;;;;;;24.38;44.95;92982.69;4991194;28;7070;-61
2022/11/23 02:29:28;;;;;;;;;;;;;;;24.37;45.84;92992.22;4952593;28;7522;-62
2022/11/23 02:31:55;;;;;;;;;;;;;;;24.38;45.43;92987.47;4952310;28;7673;-62
2022/11/23 02:34:23;;;;;;;;;;;;;;;24.38;45.09;92985.44;4953439;28;7381;-62
2022/11/23 02:37:01;;;;;;;;;;;;;;;24.38;45.23;92982.69;4959980;28;6955;-61
2022/11/23 02:39:29;;;;;;;;;;;;;;;24.37;45.03;92983.97;4957418;28;7304;-62
2022/11/23 02:41:57;;;;;;;;;;;;;;;24.38;45.45;92984.72;4952380;28;7426;-61
2022/11/23 02:44:37;;;;;;;;;;;;;;;24.38;45.20;92990.22;4951763;28;9150;-61
2022/11/23 02:47:09;;;;;;;;;;;;;;;24.38;45.05;92982.69;4954522;28;7057;-61
2022/11/23 02:49:38;;;;;;;;;;;;;;;24.36;45.19;92974.25;4953395;28;7186;-61
2022/11/23 02:52:07;;;;;;;;;;;;;;;24.36;45.26;92985.25;4937029;28;7169;-62
2022/11/23 02:54:34;;;;;;;;;;;;;;;24.36;45.09;92971.50;4952866;28;9136;-61
2022/11/23 02:57:05;;;;;;;;;;;;;;;24.37;45.45;92981.22;4936626;28;7672;-62
2022/11/23 02:59:32;;;;;;;;;;;;;;;24.37;45.16;92983.25;4951432;28;7069;-61
2022/11/23 03:02:00;;;;;;;;;;;;;;;24.36;45.36;92979.75;4952754;28;7025;-62
2022/11/23 03:04:28;;;;;;;;;;;;;;;24.36;45.38;92973.53;4980891;28;6993;-61
2022/11/23 03:06:59;;;;;;;;;;;;;;;24.36;45.45;92976.28;5003346;28;6860;-62
2022/11/23 03:09:25;;;;;;;;;;;;;;;24.37;45.09;92981.22;4981921;28;7039;-61
2022/11/23 03:11:54;;;;;;;;;;;;;;;24.37;45.52;92973.00;4977849;28;7340;-62
2022/11/23 03:14:20;;;;;;;;;;;;;;;24.37;44.83;92975.00;4981995;28;8288;-61
2022/11/23 03:16:46;;;;;;;;;;;;;;;24.37;45.44;92973.00;4986407;28;9098;-62
2022/11/23 03:19:14;;;;;;;;;;;;;;;24.36;45.86;92976.28;4982436;28;7306;-62
2022/11/23 03:21:42;;;;;;;;;;;;;;;24.38;45.48;92977.19;4986297;28;7139;-61
2022/11/23 03:24:17;;;;;;;;;;;;;;;24.36;45.25;92968.75;4991764;28;8966;-61
2022/11/23 03:26:43;;;;;;;;;;;;;;;24.37;45.44;92967.50;4977281;28;9405;-61
2022/11/23 03:29:11;;;;;;;;;;;;;;;24.36;45.21;92963.25;4996863;28;7525;-61
2022/11/23 03:31:38;;;;;;;;;;;;;;;24.38;44.68;92979.22;4985643;28;7044;-61
2022/11/23 03:34:04;;;;;;;;;;;;;;;24.36;45.02;92974.25;5005697;28;7081;-61
2022/11/23 03:36:32;;;;;;;;;;;;;;;24.35;45.34;92958.31;4986275;28;8512;-61
2022/11/23 03:39:00;;;;;;;;;;;;;;;24.35;45.02;92966.56;4976844;28;7182;-62
2022/11/23 03:41:29;;;;;;;;;;;;;;;24.35;45.44;92961.78;4994897;28;7319;-62
2022/11/23 03:43:58;;;;;;;;;;;;;;;24.35;45.17;92948.06;4985122;28;7208;-61
2022/11/23 03:46:26;;;;;;;;;;;;;;;24.35;45.22;92950.81;4976187;28;7266;-61
2022/11/23 03:48:52;;;;;;;;;;;;;;;24.33;45.13;92942.38;4984007;28;7486;-61
2022/11/23 03:51:35;;;;;;;;;;;;;;;24.36;44.89;92946.06;4984701;28;7017;-62
2022/11/23 03:54:06;;;;;;;;;;;;;;;24.35;45.00;92937.06;4977257;28;7051;-61
2022/11/23 03:56:36;;;;;;;;;;;;;;;24.34;45.33;92943.81;4986420;28;7177;-62
2022/11/23 03:59:02;;;;;;;;;;;;;;;24.35;45.26;92942.56;4986387;28;8297;-62
2022/11/23 04:01:28;;;;;;;;;;;;;;;24.34;45.34;92938.31;4989606;28;7210;-61
2022/11/23 04:03:56;;;;;;;;;;;;;;;24.34;45.04;92932.09;4994777;28;8921;-62
2022/11/23 04:06:27;;;;;;;;;;;;;;;24.34;45.14;92932.09;4992620;28;7417;-62
2022/11/23 04:08:53;;;;;;;;;;;;;;;24.36;44.99;92938.53;4982241;28;8988;-62
2022/11/23 04:11:24;;;;;;;;;;;;;;;24.35;45.29;92942.56;4985449;28;7228;-62
2022/11/23 04:13:54;;;;;;;;;;;;;;;24.36;44.92;92944.03;4989365;28;7275;-62
2022/11/23 04:16:29;;;;;;;;;;;;;;;24.34;45.43;92930.09;5001201;28;7327;-61
2022/11/23 04:18:56;;;;;;;;;;;;;;;24.36;45.22;92929.56;4996400;28;9043;-61
2022/11/23 04:21:36;;;;;;;;;;;;;;;24.36;44.92;92926.81;4979628;28;7405;-61
2022/11/23 04:24:09;;;;;;;;;;;;;;;24.35;44.93;92920.56;5001951;28;9077;-61
2022/11/23 04:26:44;;;;;;;;;;;;;;;24.37;45.45;92920.78;5002287;28;7621;-61
2022/11/23 04:29:11;;;;;;;;;;;;;;;24.37;45.20;92912.53;4984002;28;7163;-62
2022/11/23 04:31:45;;;;;;;;;;;;;;;24.37;45.19;92920.03;4985151;28;7263;-62
2022/11/23 04:34:13;;;;;;;;;;;;;;;24.36;44.67;92905.56;4995441;28;7066;-61
2022/11/23 04:36:39;;;;;;;;;;;;;;;24.38;44.95;92905.03;4988046;28;7860;-61
2022/11/23 04:39:17;;;;;;;;;;;;;;;24.36;45.04;92908.28;5005454;28;7465;-62
2022/11/23 04:41:44;;;;;;;;;;;;;;;24.36;45.20;92905.56;4988665;28;7465;-62
2022/11/23 04:44:14;;;;;;;;;;;;;;;24.36;45.04;92905.56;4988799;28;7829;-62
2022/11/23 04:46:51;;;;;;;;;;;;;;;24.37;44.96;92903.53;4993839;28;7266;-61
2022/11/23 04:49:18;;;;;;;;;;;;;;;24.37;45.21;92896.03;4983599;28;12588;-61
2022/11/23 04:51:44;;;;;;;;;;;;;;;24.38;44.51;92891.28;4989435;28;7112;-61
2022/11/23 04:54:10;;;;;;;;;;;;;;;24.37;45.32;92887.06;4991955;28;7144;-62
2022/11/23 04:56:36;;;;;;;;;;;;;;;24.38;44.83;92888.53;4989707;28;9427;-61
2022/11/23 04:59:02;;;;;;;;;;;;;;;24.38;45.06;92888.53;4973782;28;7199;-62
2022/11/23 05:01:30;;;;;;;;;;;;;;;24.35;45.59;92884.84;4980391;28;8359;-61
2022/11/23 05:03:56;;;;;;;;;;;;;;;24.37;45.16;92885.06;4983838;28;7559;-61
2022/11/23 05:06:22;;;;;;;;;;;;;;;24.40;45.37;92894.25;4991641;28;9501;-61
2022/11/23 05:08:48;;;;;;;;;;;;;;;24.39;44.90;92879.00;4984210;28;7024;-61
2022/11/23 05:11:14;;;;;;;;;;;;;;;24.39;44.56;92885.25;4993915;28;7204;-61
2022/11/23 05:13:42;;;;;;;;;;;;;;;24.39;44.29;92885.25;4992014;28;9031;-61
2022/11/23 05:16:14;;;;;;;;;;;;;;;24.37;44.80;92881.56;4996231;28;7067;-61
2022/11/23 05:18:44;;;;;;;;;;;;;;;24.36;44.51;92886.31;4979751;28;7882;-61
2022/11/23 05:21:26;;;;;;;;;;;;;;;24.38;44.44;92892.00;4992851;28;7129;-61
2022/11/23 05:23:54;;;;;;;;;;;;;;;24.37;44.79;92887.81;4983737;28;7373;-62
2022/11/23 05:26:21;;;;;;;;;;;;;;;24.37;44.91;92887.81;4978204;28;7025;-62
2022/11/23 05:28:48;;;;;;;;;;;;;;;24.36;44.99;92880.81;4982227;28;9284;-61
2022/11/23 05:31:43;;;;;;;;;;;;;;;24.38;45.27;92877.56;5009395;28;7381;-61
2022/11/23 05:34:11;;;;;;;;;;;;;;;24.37;45.32;92870.56;4973621;28;7318;-61
2022/11/23 05:36:44;;;;;;;;;;;;;;;24.35;45.41;92873.13;4972603;28;8052;-62
2022/11/23 05:39:22;;;;;;;;;;;;;;;24.35;44.87;92870.38;4940990;28;9255;-61
2022/11/23 05:41:56;;;;;;;;;;;;;;;24.35;45.12;92871.13;4972761;28;10271;-62
2022/11/23 05:44:22;;;;;;;;;;;;;;;24.36;44.66;92883.56;4971123;28;8994;-62
2022/11/23 05:47:00;;;;;;;;;;;;;;;24.36;45.19;92875.31;4973306;28;7328;-61
2022/11/23 05:49:36;;;;;;;;;;;;;;;24.37;44.85;92885.06;4970989;28;7076;-62
2022/11/23 05:52:13;;;;;;;;;;;;;;;24.36;44.87;92871.88;4969623;28;7460;-62
2022/11/23 05:54:40;;;;;;;;;;;;;;;24.37;44.86;92871.31;4966198;28;7027;-62
2022/11/23 05:57:35;;;;;;;;;;;;;;;24.40;45.25;92872.97;4971798;28;7016;-62
2022/11/23 06:00:18;;;;;;;;;;;;;;;24.42;43.83;92877.94;4903337;29;7054;-62
2022/11/23 06:02:44;;;;;;;;;;;;;;;24.43;44.56;92873.91;4910924;29;8898;-62
2022/11/23 06:05:12;;;;;;;;;;;;;;;24.45;43.98;92871.34;4912844;29;9702;-62
2022/11/23 06:07:38;;;;;;;;;;;;;;;24.45;43.70;92876.84;4889944;29;9350;-62
2022/11/23 06:10:05;;;;;;;;;;;;;;;24.45;44.28;92874.84;4894292;29;7316;-62
2022/11/23 06:12:46;;;;;;;;;;;;;;;24.52;43.93;92881.66;4901935;28;7030;-62
2022/11/23 06:15:17;;;;;;;;;;;;;;;24.56;43.95;92882.81;4912169;29;8713;-62
2022/11/23 06:17:43;;;;;;;;;;;;;;;24.54;43.71;92876.38;4925381;29;7495;-62
2022/11/23 06:20:12;;;;;;;;;;;;;;;24.52;43.58;92873.41;4924772;29;7149;-62
2022/11/23 06:22:41;;;;;;;;;;;;;;;24.47;43.04;92875.03;4908408;29;8958;-62
2022/11/23 06:25:23;;;;;;;;;;;;;;;24.43;43.82;92884.91;4920598;29;9263;-62
2022/11/23 06:28:07;;;;;;;;;;;;;;;24.42;43.56;92884.19;4928824;29;6977;-62
2022/11/23 06:30:33;;;;;;;;;;;;;;;24.40;43.59;92886.00;4922242;29;9491;-62
2022/11/23 06:33:03;;;;;;;;;;;;;;;24.35;44.23;92886.88;4910202;29;9230;-62
2022/11/23 06:35:29;;;;;;;;;;;;;;;24.41;43.93;92895.69;4931303;28;8743;-62
2022/11/23 06:38:03;;;;;;;;;;;;;;;24.45;43.81;92888.59;4988538;28;7288;-62
2022/11/23 06:40:32;;;;;;;;;;;;;;;24.46;43.45;92895.56;4995931;28;7087;-62
2022/11/23 06:43:02;;;;;;;;;;;;;;;24.44;43.33;92897.38;4997951;28;7216;-62
2022/11/23 06:45:29;;;;;;;;;;;;;;;24.43;43.09;92907.63;4984616;28;7709;-61
2022/11/23 06:48:04;;;;;;;;;;;;;;;24.41;43.35;92901.94;4990892;28;8020;-62
2022/11/23 06:50:39;;;;;;;;;;;;;;;24.40;43.98;92905.22;4976574;28;9012;-61
2022/11/23 06:53:05;;;;;;;;;;;;;;;24.40;43.70;92910.72;4982412;28;7079;-61
2022/11/23 06:55:35;;;;;;;;;;;;;;;24.40;43.46;92914.19;4990953;28;7069;-62
2022/11/23 06:58:08;;;;;;;;;;;;;;;24.39;43.76;92914.72;4979397;28;7340;-62
2022/11/23 07:00:35;;;;;;;;;;;;;;;24.38;44.68;92916.75;5001868;28;7260;-62
2022/11/23 07:03:01;;;;;;;;;;;;;;;24.40;44.32;92924.47;4985499;28;7431;-62
2022/11/23 07:05:28;;;;;;;;;;;;;;;24.38;43.45;92924.97;4985530;28;7281;-62
2022/11/23 07:07:56;;;;;;;;;;;;;;;24.39;44.60;92926.47;4998131;28;7021;-62
2022/11/23 07:10:22;;;;;;;;;;;;;;;24.43;44.34;92923.38;4985163;28;9070;-62
2022/11/23 07:12:49;;;;;;;;;;;;;;;24.47;44.38;92927.25;4998405;28;7064;-62
2022/11/23 07:15:16;;;;;;;;;;;;;;;24.46;43.11;92934.03;4992696;28;7046;-62
2022/11/23 07:17:43;;;;;;;;;;;;;;;24.47;43.76;92941.00;4988757;28;9069;-62
2022/11/23 07:20:16;;;;;;;;;;;;;;;24.45;43.47;92954.53;4983617;28;7571;-62
2022/11/23 07:22:47;;;;;;;;;;;;;;;24.44;43.89;92946.84;5006425;28;7271;-62
2022/11/23 07:25:17;;;;;;;;;;;;;;;24.41;43.52;92945.16;5007904;28;8924;-62
2022/11/23 07:27:54;;;;;;;;;;;;;;;24.43;43.81;92948.84;4962980;28;7022;-62
2022/11/23 07:30:34;;;;;;;;;;;;;;;24.44;43.74;92942.09;4979954;28;9053;-62
2022/11/23 07:33:07;;;;;;;;;;;;;;;24.47;43.86;92948.50;5007477;28;6867;-62
2022/11/23 07:35:38;;;;;;;;;;;;;;;24.46;43.65;92950.53;4986088;28;7253;-62
2022/11/23 07:38:06;;;;;;;;;;;;;;;24.46;43.61;92945.03;4977561;28;7282;-62
2022/11/23 07:40:36;;;;;;;;;;;;;;;24.47;43.78;92946.50;4993866;28;9047;-62
2022/11/23 07:43:05;;;;;;;;;;;;;;;24.50;43.61;92952.94;4984585;28;7367;-62
2022/11/23 07:45:31;;;;;;;;;;;;;;;24.48;43.99;92942.50;4992555;28;7118;-62
2022/11/23 07:48:00;;;;;;;;;;;;;;;24.49;43.40;92943.22;4982082;28;7270;-62
2022/11/23 07:50:38;;;;;;;;;;;;;;;24.48;43.59;92944.50;4996741;28;7033;-62
2022/11/23 07:53:06;;;;;;;;;;;;;;;24.47;44.09;92945.75;4999678;28;9114;-62
2022/11/23 07:55:35;;;;;;;;;;;;;;;24.45;43.63;92949.03;5011891;28;7136;-62
2022/11/23 07:58:02;;;;;;;;;;;;;;;24.45;44.24;92938.06;5013429;28;7073;-62
2022/11/23 08:00:37;;;;;;;;;;;;;;;24.44;43.86;92931.09;4983788;28;8808;-62
2022/11/23 08:03:03;;;;;;;;;;;;;;;24.46;43.81;92928.53;4988720;28;7231;-62
2022/11/23 08:05:35;;;;;;;;;;;;;;;24.45;44.06;92924.31;4999922;28;7369;-62
2022/11/23 08:08:04;;;;;;;;;;;;;;;24.45;43.47;92924.31;4998310;28;7282;-62
2022/11/23 08:10:31;;;;;;;;;;;;;;;24.46;44.52;92925.81;4997123;28;7180;-62
2022/11/23 08:13:01;;;;;;;;;;;;;;;24.48;43.95;92928.00;5013848;28;9522;-62
2022/11/23 08:15:46;;;;;;;;;;;;;;;24.48;43.95;92931.50;4978621;28;7465;-62
2022/11/23 08:18:12;;;;;;;;;;;;;;;24.47;44.19;92924.50;4995041;28;7299;-62
2022/11/23 08:20:48;;;;;;;;;;;;;;;24.48;44.78;92922.50;4997844;28;7186;-62
2022/11/23 08:23:14;;;;;;;;;;;;;;;24.48;44.10;92920.50;4984636;28;7655;-62
2022/11/23 08:25:40;;;;;;;;;;;;;;;24.47;44.47;92916.25;4997151;28;7128;-62
2022/11/23 08:28:06;;;;;;;;;;;;;;;24.48;44.45;92917.00;4995525;28;9403;-62
2022/11/23 08:30:33;;;;;;;;;;;;;;;24.50;44.03;92903.47;5008815;28;7036;-62
2022/11/23 08:33:06;;;;;;;;;;;;;;;24.49;44.02;92902.00;4995538;28;7025;-62
2022/11/23 08:35:42;;;;;;;;;;;;;;;24.50;44.53;92906.94;5002527;28;9069;-62
2022/11/23 08:38:14;;;;;;;;;;;;;;;24.50;44.18;92908.97;4995805;28;7353;-62
2022/11/23 08:40:47;;;;;;;;;;;;;;;24.51;44.34;92894.66;4994367;28;9621;-62
2022/11/23 08:43:13;;;;;;;;;;;;;;;24.49;43.97;92908.22;4994087;28;9047;-62
2022/11/23 08:45:39;;;;;;;;;;;;;;;24.51;44.38;92905.66;5006170;28;7258;-61
2022/11/23 08:48:05;;;;;;;;;;;;;;;24.50;44.53;92900.72;4984137;28;7199;-61
2022/11/23 08:50:35;;;;;;;;;;;;;;;24.51;43.83;92913.91;4992098;28;7116;-62
2022/11/23 08:53:04;;;;;;;;;;;;;;;24.52;44.55;92911.91;4987203;28;7250;-62
2022/11/23 08:55:30;;;;;;;;;;;;;;;24.52;44.39;92911.91;4994084;28;8419;-62
2022/11/23 08:58:03;;;;;;;;;;;;;;;24.52;44.32;92909.91;4993428;28;7495;-61
2022/11/23 09:00:29;;;;;;;;;;;;;;;24.52;44.16;92907.16;4996659;28;7109;-62
2022/11/23 09:02:58;;;;;;;;;;;;;;;24.54;44.48;92912.09;4988202;28;9781;-62
2022/11/23 09:05:25;;;;;;;;;;;;;;;24.54;44.43;92917.59;5009948;28;7035;-61
2022/11/23 09:07:51;;;;;;;;;;;;;;;24.54;44.24;92915.59;4985335;28;7140;-61
2022/11/23 09:10:17;;;;;;;;;;;;;;;24.55;44.01;92916.34;4992093;28;7906;-62
2022/11/23 09:12:48;;;;;;;;;;;;;;;24.56;44.25;92924.03;5009642;28;7888;-62
2022/11/23 09:15:18;;;;;;;;;;;;;;;24.57;44.16;92924.78;4982571;28;7030;-62
2022/11/23 09:17:55;;;;;;;;;;;;;;;24.56;44.24;92926.78;4994175;28;7051;-62
2022/11/23 09:20:26;;;;;;;;;;;;;;;24.57;44.30;92922.03;4986891;28;7301;-61
2022/11/23 09:22:54;;;;;;;;;;;;;;;24.57;44.15;92927.53;4998472;28;7264;-61
2022/11/23 09:25:21;;;;;;;;;;;;;;;24.57;44.30;92931.00;5004703;28;7195;-61
2022/11/23 09:28:06;;;;;;;;;;;;;;;24.59;44.19;92928.47;4993682;28;7016;-61
2022/11/23 09:30:31;;;;;;;;;;;;;;;24.60;44.29;92927.16;4985430;28;7431;-61
2022/11/23 09:33:03;;;;;;;;;;;;;;;24.63;44.48;92934.34;4985955;28;9080;-61
2022/11/23 09:35:33;;;;;;;;;;;;;;;24.66;44.01;92930.50;4993569;28;9542;-61
2022/11/23 09:38:05;;;;;;;;;;;;;;;24.70;44.30;92946.69;4992350;28;7031;-61
2022/11/23 09:40:38;;;;;;;;;;;;;;;24.74;43.77;92936.06;4993627;28;7075;-61
2022/11/23 09:43:39;;;;;;;;;;;;;;;24.77;43.66;92945.28;4998279;28;7216;-61
2022/11/23 09:46:21;;;;;;;;;;;;;;;24.79;44.37;92948.22;4993056;28;7587;-61
2022/11/23 09:49:12;;;;;;;;;;;;;;;24.78;43.95;92942.00;4974757;28;7327;-61
2022/11/23 09:51:47;;;;;;;;;;;;;;;24.80;43.80;92952.44;4983470;28;7620;-61
2022/11/23 09:54:31;;;;;;;;;;;;;;;24.81;43.67;92943.66;4990137;28;7056;-61
2022/11/23 09:57:05;;;;;;;;;;;;;;;24.82;43.87;92938.88;5001205;28;9231;-61
2022/11/23 09:59:58;;;;;;;;;;;;;;;24.83;44.21;92932.13;4993364;28;7158;-61
2022/11/23 10:02:27;;;;;;;;;;;;;;;24.83;43.55;92932.13;4992155;28;8525;-61
2022/11/23 10:04:58;;;;;;;;;;;;;;;24.84;44.29;92939.81;4992625;28;7428;-61
2022/11/23 10:07:29;;;;;;;;;;;;;;;24.83;43.54;92934.88;4989731;28;7413;-61
2022/11/23 10:10:07;;;;;;;;;;;;;;;24.84;44.51;92922.59;4990441;28;7024;-61
2022/11/23 10:12:48;;;;;;;;;;;;;;;24.84;43.77;92920.56;4995874;28;7019;-61
2022/11/23 10:15:51;;;;;;;;;;;;;;;24.85;43.71;92929.56;4986717;28;9437;-61
2022/11/23 10:18:38;;;;;;;;;;;;;;;24.86;43.79;92926.28;4978690;28;7434;-61
2022/11/23 10:21:10;;;;;;;;;;;;;;;24.84;44.59;92922.59;5009603;28;6998;-61
2022/11/23 10:24:07;;;;;;;;;;;;;;;24.85;43.82;92924.06;4985228;28;7298;-61
2022/11/23 10:27:13;;;;;;;;;;;;;;;24.87;44.83;92927.75;4980719;28;7439;-61
2022/11/23 10:29:59;;;;;;;;;;;;;;;24.88;44.83;92929.22;4986660;28;9314;-61
2022/11/23 10:32:40;;;;;;;;;;;;;;;24.90;44.71;92925.94;4982539;28;8525;-61
2022/11/23 10:35:28;;;;;;;;;;;;;;;24.94;44.31;92924.31;4957217;28;7337;-61
2022/11/23 10:38:24;;;;;;;;;;;;;;;24.94;44.58;92929.06;4990289;28;7386;-61
2022/11/23 10:41:05;;;;;;;;;;;;;;;24.97;44.08;92925.25;4964966;28;7025;-61
2022/11/23 10:44:04;;;;;;;;;;;;;;;24.98;44.56;92921.94;4988649;28;7452;-61
2022/11/23 10:46:32;;;;;;;;;;;;;;;24.99;44.79;92917.91;4957578;28;6953;-61
2022/11/23 10:49:21;;;;;;;;;;;;;;;25.02;44.48;92918.84;4991690;28;9448;-61
2022/11/23 10:52:29;;;;;;;;;;;;;;;25.03;44.31;92925.84;4971983;28;8813;-61
2022/11/23 10:55:16;;;;;;;;;;;;;;;25.05;43.80;92921.25;4942613;28;7272;-61
2022/11/23 10:57:53;;;;;;;;;;;;;;;25.03;45.00;92921.06;4950767;28;7049;-61
2022/11/23 11:00:32;;;;;;;;;;;;;;;25.03;44.24;92914.81;4926135;28;7196;-61
2022/11/23 11:02:59;;;;;;;;;;;;;;;25.01;44.12;92909.84;4940647;28;9001;-61
2022/11/23 11:05:31;;;;;;;;;;;;;;;25.02;43.67;92905.09;4947799;28;7002;-61
2022/11/23 11:08:01;;;;;;;;;;;;;;;25.02;43.78;92905.84;4952598;28;7434;-61
2022/11/23 11:10:36;;;;;;;;;;;;;;;25.04;44.32;92897.78;4961444;28;7364;-61
2022/11/23 11:13:45;;;;;;;;;;;;;;;25.08;44.11;92900.91;4953467;28;7264;-61
2022/11/23 11:16:29;;;;;;;;;;;;;;;25.10;44.19;92897.63;4932832;29;7123;-61
2022/11/23 11:19:40;;;;;;;;;;;;;;;25.11;44.33;92901.84;4932679;28;7251;-61
2022/11/23 11:22:35;;;;;;;;;;;;;;;25.09;44.36;92887.91;4938756;28;7052;-61
2022/11/23 11:25:29;;;;;;;;;;;;;;;25.13;43.92;92888.28;4936307;28;8763;-61
2022/11/23 11:28:23;;;;;;;;;;;;;;;25.15;43.91;92880.94;4933968;28;7270;-61
2022/11/23 11:31:05;;;;;;;;;;;;;;;25.17;43.85;92883.91;4942563;28;7045;-61
2022/11/23 11:33:53;;;;;;;;;;;;;;;25.18;44.44;92879.13;4970855;28;7300;-61
2022/11/23 11:36:23;;;;;;;;;;;;;;;25.16;44.04;92871.44;4970760;28;7326;-61
2022/11/23 11:39:06;;;;;;;;;;;;;;;25.17;43.97;92872.88;4970029;28;7018;-61
2022/11/23 11:41:37;;;;;;;;;;;;;;;25.16;44.31;92871.44;4971053;28;8662;-61
2022/11/23 11:44:19;;;;;;;;;;;;;;;25.18;44.04;92868.13;4970936;28;9373;-61
2022/11/23 11:47:24;;;;;;;;;;;;;;;25.20;44.89;92877.31;4987642;28;10127;-61
2022/11/23 11:49:56;;;;;;;;;;;;;;;25.20;44.23;92874.56;4996417;28;7317;-61
2022/11/23 11:52:36;;;;;;;;;;;;;;;25.22;44.79;92871.25;4989976;28;7255;-61
2022/11/23 11:55:29;;;;;;;;;;;;;;;25.21;44.74;92861.53;4986489;28;7024;-61
2022/11/23 11:58:03;;;;;;;;;;;;;;;25.26;44.27;92868.88;5000989;28;7296;-61
2022/11/23 12:00:35;;;;;;;;;;;;;;;25.26;43.91;92864.13;4973792;28;7239;-61
2022/11/23 12:03:17;;;;;;;;;;;;;;;25.29;44.50;92856.81;4986848;28;7554;-61
2022/11/23 12:05:53;;;;;;;;;;;;;;;25.32;44.07;92864.69;4989365;28;7118;-61
2022/11/23 12:08:32;;;;;;;;;;;;;;;25.35;44.87;92860.13;4990603;28;7291;-61
2022/11/23 12:11:06;;;;;;;;;;;;;;;25.38;44.43;92857.00;4982458;28;7527;-61
2022/11/23 12:13:39;;;;;;;;;;;;;;;25.40;44.88;92859.94;4992424;28;9104;-61
2022/11/23 12:16:19;;;;;;;;;;;;;;;25.42;43.81;92859.44;4980443;28;7044;-61
2022/11/23 12:18:53;;;;;;;;;;;;;;;25.43;44.51;92856.13;5000290;28;7341;-61
2022/11/23 12:21:38;;;;;;;;;;;;;;;25.46;44.81;92853.56;5004241;28;7056;-62
2022/11/23 12:24:20;;;;;;;;;;;;;;;25.48;43.60;92857.25;4998991;28;9015;-61
2022/11/23 12:26:57;;;;;;;;;;;;;;;25.53;43.87;92859.09;4998144;28;7062;-62
2022/11/23 12:29:43;;;;;;;;;;;;;;;25.53;43.80;92859.09;4974628;28;7358;-62
2022/11/23 12:32:37;;;;;;;;;;;;;;;25.55;44.27;92862.03;4997849;28;7097;-62
2022/11/23 12:35:22;;;;;;;;;;;;;;;25.57;44.17;92853.22;4986400;28;7365;-62
2022/11/23 12:38:13;;;;;;;;;;;;;;;25.56;44.03;92858.00;4979019;28;7391;-62
2022/11/23 12:40:55;;;;;;;;;;;;;;;25.62;44.25;92853.03;4998759;28;8252;-61
2022/11/23 12:43:36;;;;;;;;;;;;;;;25.65;43.98;92851.22;5000305;28;6997;-61
2022/11/23 12:46:29;;;;;;;;;;;;;;;25.66;44.42;92850.69;4998567;28;7325;-62
2022/11/23 12:49:10;;;;;;;;;;;;;;;25.67;43.27;92859.66;4979700;28;7061;-62
2022/11/23 12:51:56;;;;;;;;;;;;;;;25.69;43.31;92848.84;4986106;28;9397;-62
2022/11/23 12:54:54;;;;;;;;;;;;;;;25.64;44.63;92853.25;5001075;28;7264;-61
2022/11/23 12:57:32;;;;;;;;;;;;;;;25.63;43.74;92854.53;4987286;28;7041;-61
2022/11/23 13:00:05;;;;;;;;;;;;;;;25.58;44.56;92847.16;4996463;28;7762;-62
2022/11/23 13:02:37;;;;;;;;;;;;;;;25.58;43.66;92843.69;4984610;28;7312;-61
2022/11/23 13:05:22;;;;;;;;;;;;;;;25.55;44.53;92836.53;5005208;28;9267;-61
2022/11/23 13:08:16;;;;;;;;;;;;;;;25.55;44.04;92833.78;4986592;28;8732;-61
2022/11/23 13:11:23;;;;;;;;;;;;;;;25.54;44.36;92833.03;4994833;28;8847;-62
2022/11/23 13:14:26;;;;;;;;;;;;;;;25.50;43.62;92838.16;4928745;28;8993;-61
2022/11/23 13:17:29;;;;;;;;;;;;;;;25.48;43.59;92849.00;4918987;29;7293;-61
2022/11/23 13:20:33;;;;;;;;;;;;;;;25.47;44.00;92847.50;4916467;29;10049;-61
2022/11/23 13:23:10;;;;;;;;;;;;;;;25.43;44.01;92834.13;4934109;29;7603;-61
2022/11/23 13:26:15;;;;;;;;;;;;;;;25.43;44.75;92823.09;4915115;29;7110;-61
2022/11/23 13:28:43;;;;;;;;;;;;;;;25.41;44.14;92819.41;4894613;29;7289;-61
2022/11/23 13:31:26;;;;;;;;;;;;;;;25.45;43.69;92824.59;4893854;29;8773;-62
2022/11/23 13:34:36;;;;;;;;;;;;;;;25.52;44.12;92810.81;4898585;29;6860;-61
2022/11/23 13:37:51;;;;;;;;;;;;;;;25.58;43.68;92816.88;4894567;29;7446;-61